sensor_id;sensor_type;location;lat;lon;timestamp;temperature;humidity
57652;DHT22;43480;53.116;6.734;2023-11-19T00:02:08;10.80;99.90
57652;DHT22;43480;53.116;6.734;2023-11-19T00:04:37;11.00;99.90
57652;DHT22;43480;53.116;6.734;2023-11-19T00:07:04;10.90;99.90
57652;DHT22;43480;53.116;6.734;2023-11-19T00:09:32;10.90;99.90
57652;DHT22;43480;53.116;6.734;2023-11-19T00:11:58;11.00;99.90
57652;DHT22;43480;53.116;6.734;2023-11-19T00:14:26;11.00;99.90
57652;DHT22;43480;53.116;6.734;2023-11-19T00:16:51;11.10;99.90
57652;DHT22;43480;53.116;6.734;2023-11-19T00:19:19;11.10;99.90
57652;DHT22;43480;53.116;6.734;2023-11-19T00:21:44;11.20;99.90
57652;DHT22;43480;53.116;6.734;2023-11-19T00:24:11;11.20;99.90
57652;DHT22;43480;53.116;6.734;2023-11-19T00:26:38;11.20;99.90
57652;DHT22;43480;53.116;6.734;2023-11-19T00:29:04;11.30;99.90
57652;DHT22;43480;53.116;6.734;2023-11-19T00:31:29;11.30;99.90
57652;DHT22;43480;53.116;6.734;2023-11-19T00:33:55;11.30;99.90
57652;DHT22;43480;53.116;6.734;2023-11-19T00:36:21;11.30;99.90
57652;DHT22;43480;53.116;6.734;2023-11-19T00:38:49;11.40;99.90
57652;DHT22;43480;53.116;6.734;2023-11-19T00:41:15;11.40;99.90
57652;DHT22;43480;53.116;6.734;2023-11-19T00:43:42;11.40;99.90
57652;DHT22;43480;53.116;6.734;2023-11-19T00:46:08;11.50;99.90
57652;DHT22;43480;53.116;6.734;2023-11-19T00:48:34;11.50;99.90
57652;DHT22;43480;53.116;6.734;2023-11-19T00:50:59;11.50;99.90
57652;DHT22;43480;53.116;6.734;2023-11-19T00:53:25;11.60;99.90
57652;DHT22;43480;53.116;6.734;2023-11-19T00:55:51;11.70;99.90
57652;DHT22;43480;53.116;6.734;2023-11-19T00:58:17;11.70;99.90
57652;DHT22;43480;53.116;6.734;2023-11-19T01:00:43;11.70;99.90
57652;DHT22;43480;53.116;6.734;2023-11-19T01:03:10;11.80;99.90
57652;DHT22;43480;53.116;6.734;2023-11-19T01:05:37;11.90;99.90
57652;DHT22;43480;53.116;6.734;2023-11-19T01:08:02;11.90;99.90
57652;DHT22;43480;53.116;6.734;2023-11-19T01:10:30;11.90;99.90
57652;DHT22;43480;53.116;6.734;2023-11-19T01:12:56;11.90;99.90
57652;DHT22;43480;53.116;6.734;2023-11-19T01:15:22;11.90;99.90
57652;DHT22;43480;53.116;6.734;2023-11-19T01:17:48;11.90;99.90
57652;DHT22;43480;53.116;6.734;2023-11-19T01:20:14;12.00;99.90
57652;DHT22;43480;53.116;6.734;2023-11-19T01:22:40;12.00;99.90
57652;DHT22;43480;53.116;6.734;2023-11-19T01:25:06;12.10;99.90
57652;DHT22;43480;53.116;6.734;2023-11-19T01:27:32;12.00;99.90
57652;DHT22;43480;53.116;6.734;2023-11-19T01:30:00;12.10;99.90
57652;DHT22;43480;53.116;6.734;2023-11-19T01:32:29;12.10;99.90
57652;DHT22;43480;53.116;6.734;2023-11-19T01:34:54;12.20;99.90
57652;DHT22;43480;53.116;6.734;2023-11-19T01:37:20;12.10;99.90
57652;DHT22;43480;53.116;6.734;2023-11-19T01:39:46;12.20;99.90
57652;DHT22;43480;53.116;6.734;2023-11-19T01:42:11;12.20;99.90
57652;DHT22;43480;53.116;6.734;2023-11-19T01:44:41;12.20;99.90
57652;DHT22;43480;53.116;6.734;2023-11-19T01:47:08;12.30;99.90
57652;DHT22;43480;53.116;6.734;2023-11-19T01:49:34;12.30;99.90
57652;DHT22;43480;53.116;6.734;2023-11-19T01:52:00;12.20;99.90
57652;DHT22;43480;53.116;6.734;2023-11-19T01:54:26;12.30;99.90
57652;DHT22;43480;53.116;6.734;2023-11-19T01:56:55;12.40;99.90
57652;DHT22;43480;53.116;6.734;2023-11-19T01:59:22;12.30;99.90
57652;DHT22;43480;53.116;6.734;2023-11-19T02:01:54;12.30;99.90
57652;DHT22;43480;53.116;6.734;2023-11-19T02:04:21;12.30;99.90
57652;DHT22;43480;53.116;6.734;2023-11-19T02:06:48;12.40;99.90
57652;DHT22;43480;53.116;6.734;2023-11-19T02:09:16;12.30;99.90
57652;DHT22;43480;53.116;6.734;2023-11-19T02:11:45;12.30;99.90
57652;DHT22;43480;53.116;6.734;2023-11-19T02:14:15;12.30;99.90
57652;DHT22;43480;53.116;6.734;2023-11-19T02:16:40;12.30;99.90
57652;DHT22;43480;53.116;6.734;2023-11-19T02:19:06;12.20;99.90
57652;DHT22;43480;53.116;6.734;2023-11-19T02:21:32;12.30;99.90
57652;DHT22;43480;53.116;6.734;2023-11-19T02:23:57;12.20;99.90
57652;DHT22;43480;53.116;6.734;2023-11-19T02:26:42;12.20;99.90
57652;DHT22;43480;53.116;6.734;2023-11-19T02:29:09;12.20;99.90
57652;DHT22;43480;53.116;6.734;2023-11-19T02:31:34;12.20;99.90
57652;DHT22;43480;53.116;6.734;2023-11-19T02:34:00;12.20;99.90
57652;DHT22;43480;53.116;6.734;2023-11-19T02:36:28;12.30;99.90
57652;DHT22;43480;53.116;6.734;2023-11-19T02:38:53;12.30;99.90
57652;DHT22;43480;53.116;6.734;2023-11-19T02:41:19;12.30;99.90
57652;DHT22;43480;53.116;6.734;2023-11-19T02:43:44;12.30;99.90
57652;DHT22;43480;53.116;6.734;2023-11-19T02:46:10;12.30;99.90
57652;DHT22;43480;53.116;6.734;2023-11-19T02:48:36;12.30;99.90
57652;DHT22;43480;53.116;6.734;2023-11-19T02:51:02;12.30;99.90
57652;DHT22;43480;53.116;6.734;2023-11-19T02:53:35;12.30;99.90
57652;DHT22;43480;53.116;6.734;2023-11-19T02:56:00;12.40;99.90
57652;DHT22;43480;53.116;6.734;2023-11-19T02:58:31;12.30;99.90
57652;DHT22;43480;53.116;6.734;2023-11-19T03:00:57;12.40;99.90
57652;DHT22;43480;53.116;6.734;2023-11-19T03:03:25;12.30;99.90
57652;DHT22;43480;53.116;6.734;2023-11-19T03:05:56;12.40;99.90
57652;DHT22;43480;53.116;6.734;2023-11-19T03:08:22;12.40;99.90
57652;DHT22;43480;53.116;6.734;2023-11-19T03:10:48;12.30;99.90
57652;DHT22;43480;53.116;6.734;2023-11-19T03:13:15;12.30;99.90
57652;DHT22;43480;53.116;6.734;2023-11-19T03:15:42;12.20;99.90
57652;DHT22;43480;53.116;6.734;2023-11-19T03:18:08;12.20;99.90
57652;DHT22;43480;53.116;6.734;2023-11-19T03:20:33;12.30;99.90
57652;DHT22;43480;53.116;6.734;2023-11-19T03:22:59;12.30;99.90
57652;DHT22;43480;53.116;6.734;2023-11-19T03:25:27;12.30;99.90
57652;DHT22;43480;53.116;6.734;2023-11-19T03:28:02;12.30;99.90
57652;DHT22;43480;53.116;6.734;2023-11-19T03:30:28;12.30;99.90
57652;DHT22;43480;53.116;6.734;2023-11-19T03:32:58;12.30;99.90
57652;DHT22;43480;53.116;6.734;2023-11-19T03:35:24;12.30;99.90
57652;DHT22;43480;53.116;6.734;2023-11-19T03:37:50;12.30;99.90
57652;DHT22;43480;53.116;6.734;2023-11-19T03:40:17;12.30;99.90
57652;DHT22;43480;53.116;6.734;2023-11-19T03:42:45;12.30;99.90
57652;DHT22;43480;53.116;6.734;2023-11-19T03:45:10;12.30;99.90
57652;DHT22;43480;53.116;6.734;2023-11-19T03:47:36;12.30;99.90
57652;DHT22;43480;53.116;6.734;2023-11-19T03:50:03;12.30;99.90
57652;DHT22;43480;53.116;6.734;2023-11-19T03:52:29;12.20;99.90
57652;DHT22;43480;53.116;6.734;2023-11-19T03:54:55;12.30;99.90
57652;DHT22;43480;53.116;6.734;2023-11-19T03:57:22;12.20;99.90
57652;DHT22;43480;53.116;6.734;2023-11-19T03:59:47;12.30;99.90
57652;DHT22;43480;53.116;6.734;2023-11-19T04:02:13;12.30;99.90
57652;DHT22;43480;53.116;6.734;2023-11-19T04:04:39;12.20;99.90
57652;DHT22;43480;53.116;6.734;2023-11-19T04:07:05;12.30;99.90
57652;DHT22;43480;53.116;6.734;2023-11-19T04:09:31;12.30;99.90
57652;DHT22;43480;53.116;6.734;2023-11-19T04:11:59;12.30;99.90
57652;DHT22;43480;53.116;6.734;2023-11-19T04:14:26;12.30;99.90
57652;DHT22;43480;53.116;6.734;2023-11-19T04:16:52;12.40;99.90
57652;DHT22;43480;53.116;6.734;2023-11-19T04:19:18;12.30;99.90
57652;DHT22;43480;53.116;6.734;2023-11-19T04:21:44;12.30;99.90
57652;DHT22;43480;53.116;6.734;2023-11-19T04:24:10;12.20;99.90
57652;DHT22;43480;53.116;6.734;2023-11-19T04:26:43;12.20;99.90
57652;DHT22;43480;53.116;6.734;2023-11-19T04:29:12;12.10;99.90
57652;DHT22;43480;53.116;6.734;2023-11-19T04:31:38;12.10;99.90
57652;DHT22;43480;53.116;6.734;2023-11-19T04:34:05;12.10;99.90
57652;DHT22;43480;53.116;6.734;2023-11-19T04:36:32;12.00;99.90
57652;DHT22;43480;53.116;6.734;2023-11-19T04:38:59;12.00;99.90
57652;DHT22;43480;53.116;6.734;2023-11-19T04:41:25;12.00;99.90
57652;DHT22;43480;53.116;6.734;2023-11-19T04:43:53;12.00;99.90
57652;DHT22;43480;53.116;6.734;2023-11-19T04:46:18;12.00;99.90
57652;DHT22;43480;53.116;6.734;2023-11-19T04:48:44;12.00;99.90
57652;DHT22;43480;53.116;6.734;2023-11-19T04:51:10;11.90;99.90
57652;DHT22;43480;53.116;6.734;2023-11-19T04:53:36;12.00;99.90
57652;DHT22;43480;53.116;6.734;2023-11-19T04:56:07;11.90;99.90
57652;DHT22;43480;53.116;6.734;2023-11-19T04:58:33;11.90;99.90
57652;DHT22;43480;53.116;6.734;2023-11-19T05:00:59;12.00;99.90
57652;DHT22;43480;53.116;6.734;2023-11-19T05:03:24;12.00;99.90
57652;DHT22;43480;53.116;6.734;2023-11-19T05:05:50;12.00;99.90
57652;DHT22;43480;53.116;6.734;2023-11-19T05:08:16;11.90;99.90
57652;DHT22;43480;53.116;6.734;2023-11-19T05:10:41;11.90;99.90
57652;DHT22;43480;53.116;6.734;2023-11-19T05:13:07;11.90;99.90
57652;DHT22;43480;53.116;6.734;2023-11-19T05:15:32;11.90;99.90
57652;DHT22;43480;53.116;6.734;2023-11-19T05:17:58;11.80;99.90
57652;DHT22;43480;53.116;6.734;2023-11-19T05:20:24;11.90;99.90
57652;DHT22;43480;53.116;6.734;2023-11-19T05:22:50;11.80;99.90
57652;DHT22;43480;53.116;6.734;2023-11-19T05:25:17;11.80;99.90
57652;DHT22;43480;53.116;6.734;2023-11-19T05:27:42;11.80;99.90
57652;DHT22;43480;53.116;6.734;2023-11-19T05:30:08;11.80;99.90
57652;DHT22;43480;53.116;6.734;2023-11-19T05:32:36;11.90;99.90
57652;DHT22;43480;53.116;6.734;2023-11-19T05:35:01;11.80;99.90
57652;DHT22;43480;53.116;6.734;2023-11-19T05:37:27;11.90;99.90
57652;DHT22;43480;53.116;6.734;2023-11-19T05:39:53;11.90;99.90
57652;DHT22;43480;53.116;6.734;2023-11-19T05:42:18;11.90;99.90
57652;DHT22;43480;53.116;6.734;2023-11-19T05:44:44;11.90;99.90
57652;DHT22;43480;53.116;6.734;2023-11-19T05:47:09;11.90;99.90
57652;DHT22;43480;53.116;6.734;2023-11-19T05:49:35;11.90;99.90
57652;DHT22;43480;53.116;6.734;2023-11-19T05:52:01;11.90;99.90
57652;DHT22;43480;53.116;6.734;2023-11-19T05:54:28;11.90;99.90
57652;DHT22;43480;53.116;6.734;2023-11-19T05:56:54;11.90;99.90
57652;DHT22;43480;53.116;6.734;2023-11-19T05:59:20;11.80;99.90
57652;DHT22;43480;53.116;6.734;2023-11-19T06:01:48;11.80;99.90
57652;DHT22;43480;53.116;6.734;2023-11-19T06:04:13;11.80;99.90
57652;DHT22;43480;53.116;6.734;2023-11-19T06:06:40;11.80;99.90
57652;DHT22;43480;53.116;6.734;2023-11-19T06:09:06;11.80;99.90
57652;DHT22;43480;53.116;6.734;2023-11-19T06:11:33;11.80;99.90
57652;DHT22;43480;53.116;6.734;2023-11-19T06:13:59;11.80;99.90
57652;DHT22;43480;53.116;6.734;2023-11-19T06:16:25;11.80;99.90
57652;DHT22;43480;53.116;6.734;2023-11-19T06:18:50;11.80;99.90
57652;DHT22;43480;53.116;6.734;2023-11-19T06:21:16;11.80;99.90
57652;DHT22;43480;53.116;6.734;2023-11-19T06:23:41;11.80;99.90
57652;DHT22;43480;53.116;6.734;2023-11-19T06:26:07;11.80;99.90
57652;DHT22;43480;53.116;6.734;2023-11-19T06:28:34;11.70;99.90
57652;DHT22;43480;53.116;6.734;2023-11-19T06:30:59;11.70;99.90
57652;DHT22;43480;53.116;6.734;2023-11-19T06:33:25;11.70;99.90
57652;DHT22;43480;53.116;6.734;2023-11-19T06:35:52;11.70;99.90
57652;DHT22;43480;53.116;6.734;2023-11-19T06:38:17;11.70;99.90
57652;DHT22;43480;53.116;6.734;2023-11-19T06:40:43;11.60;99.90
57652;DHT22;43480;53.116;6.734;2023-11-19T06:43:08;11.60;99.90
57652;DHT22;43480;53.116;6.734;2023-11-19T06:45:34;11.60;99.90
57652;DHT22;43480;53.116;6.734;2023-11-19T06:48:02;11.60;99.90
57652;DHT22;43480;53.116;6.734;2023-11-19T06:50:30;11.60;99.90
57652;DHT22;43480;53.116;6.734;2023-11-19T06:52:56;11.60;99.90
57652;DHT22;43480;53.116;6.734;2023-11-19T06:55:21;11.60;99.90
57652;DHT22;43480;53.116;6.734;2023-11-19T06:57:47;11.60;99.90
57652;DHT22;43480;53.116;6.734;2023-11-19T07:00:13;11.60;99.90
57652;DHT22;43480;53.116;6.734;2023-11-19T07:02:38;11.60;99.90
57652;DHT22;43480;53.116;6.734;2023-11-19T07:05:05;11.60;99.90
57652;DHT22;43480;53.116;6.734;2023-11-19T07:07:31;11.60;99.90
57652;DHT22;43480;53.116;6.734;2023-11-19T07:09:58;11.60;99.90
57652;DHT22;43480;53.116;6.734;2023-11-19T07:12:24;11.60;99.90
57652;DHT22;43480;53.116;6.734;2023-11-19T07:14:52;11.60;99.90
57652;DHT22;43480;53.116;6.734;2023-11-19T07:17:18;11.60;99.90
57652;DHT22;43480;53.116;6.734;2023-11-19T07:19:51;11.60;99.90
57652;DHT22;43480;53.116;6.734;2023-11-19T07:22:17;11.50;99.90
57652;DHT22;43480;53.116;6.734;2023-11-19T07:24:43;11.50;99.90
57652;DHT22;43480;53.116;6.734;2023-11-19T07:27:08;11.50;99.90
57652;DHT22;43480;53.116;6.734;2023-11-19T07:29:35;11.50;99.90
57652;DHT22;43480;53.116;6.734;2023-11-19T07:32:00;11.40;99.90
57652;DHT22;43480;53.116;6.734;2023-11-19T07:34:27;11.40;99.90
57652;DHT22;43480;53.116;6.734;2023-11-19T07:36:54;11.40;99.90
57652;DHT22;43480;53.116;6.734;2023-11-19T07:39:22;11.40;99.90
57652;DHT22;43480;53.116;6.734;2023-11-19T07:41:48;11.50;99.90
57652;DHT22;43480;53.116;6.734;2023-11-19T07:44:14;11.50;99.90
57652;DHT22;43480;53.116;6.734;2023-11-19T07:46:40;11.50;99.90
57652;DHT22;43480;53.116;6.734;2023-11-19T07:49:07;11.50;99.90
57652;DHT22;43480;53.116;6.734;2023-11-19T07:51:35;11.50;99.90
57652;DHT22;43480;53.116;6.734;2023-11-19T07:54:01;11.50;99.90
57652;DHT22;43480;53.116;6.734;2023-11-19T07:56:27;11.40;99.90
57652;DHT22;43480;53.116;6.734;2023-11-19T07:58:53;11.40;99.90
57652;DHT22;43480;53.116;6.734;2023-11-19T08:01:18;11.40;99.90
57652;DHT22;43480;53.116;6.734;2023-11-19T08:03:44;11.30;99.90
57652;DHT22;43480;53.116;6.734;2023-11-19T08:06:10;11.40;99.90
57652;DHT22;43480;53.116;6.734;2023-11-19T08:08:36;11.40;99.90
57652;DHT22;43480;53.116;6.734;2023-11-19T08:11:03;11.50;99.90
57652;DHT22;43480;53.116;6.734;2023-11-19T08:13:30;11.50;99.90
57652;DHT22;43480;53.116;6.734;2023-11-19T08:15:57;11.60;99.90
57652;DHT22;43480;53.116;6.734;2023-11-19T08:18:24;11.60;99.90
57652;DHT22;43480;53.116;6.734;2023-11-19T08:20:50;11.60;99.90
57652;DHT22;43480;53.116;6.734;2023-11-19T08:23:19;11.60;99.90
57652;DHT22;43480;53.116;6.734;2023-11-19T08:25:45;11.70;99.90
57652;DHT22;43480;53.116;6.734;2023-11-19T08:28:10;11.60;99.90
57652;DHT22;43480;53.116;6.734;2023-11-19T08:30:36;11.70;99.90
57652;DHT22;43480;53.116;6.734;2023-11-19T08:33:02;11.70;99.90
57652;DHT22;43480;53.116;6.734;2023-11-19T08:35:31;11.70;99.90
57652;DHT22;43480;53.116;6.734;2023-11-19T08:37:57;11.80;99.90
57652;DHT22;43480;53.116;6.734;2023-11-19T08:40:24;11.80;99.90
57652;DHT22;43480;53.116;6.734;2023-11-19T08:42:51;11.80;99.90
57652;DHT22;43480;53.116;6.734;2023-11-19T08:45:17;11.90;99.90
57652;DHT22;43480;53.116;6.734;2023-11-19T08:47:43;11.90;99.90
57652;DHT22;43480;53.116;6.734;2023-11-19T08:50:11;11.80;99.90
57652;DHT22;43480;53.116;6.734;2023-11-19T08:52:37;11.80;99.90
57652;DHT22;43480;53.116;6.734;2023-11-19T08:55:02;11.70;99.90
57652;DHT22;43480;53.116;6.734;2023-11-19T08:57:33;11.60;99.90
57652;DHT22;43480;53.116;6.734;2023-11-19T08:59:59;11.50;99.90
57652;DHT22;43480;53.116;6.734;2023-11-19T09:02:25;11.40;99.90
57652;DHT22;43480;53.116;6.734;2023-11-19T09:04:50;11.40;99.90
57652;DHT22;43480;53.116;6.734;2023-11-19T09:07:17;11.40;99.90
57652;DHT22;43480;53.116;6.734;2023-11-19T09:09:42;11.40;99.90
57652;DHT22;43480;53.116;6.734;2023-11-19T09:12:08;11.40;99.90
57652;DHT22;43480;53.116;6.734;2023-11-19T09:14:33;11.30;99.90
57652;DHT22;43480;53.116;6.734;2023-11-19T09:16:59;11.40;99.90
57652;DHT22;43480;53.116;6.734;2023-11-19T09:19:25;11.30;99.90
57652;DHT22;43480;53.116;6.734;2023-11-19T09:21:54;11.30;99.90
57652;DHT22;43480;53.116;6.734;2023-11-19T09:24:20;11.30;99.90
57652;DHT22;43480;53.116;6.734;2023-11-19T09:26:45;11.30;99.90
57652;DHT22;43480;53.116;6.734;2023-11-19T09:29:11;11.40;99.90
57652;DHT22;43480;53.116;6.734;2023-11-19T09:31:40;11.40;99.90
57652;DHT22;43480;53.116;6.734;2023-11-19T09:34:06;11.60;99.90
57652;DHT22;43480;53.116;6.734;2023-11-19T09:36:32;11.60;99.90
57652;DHT22;43480;53.116;6.734;2023-11-19T09:38:57;11.80;99.90
57652;DHT22;43480;53.116;6.734;2023-11-19T09:41:25;11.90;99.90
57652;DHT22;43480;53.116;6.734;2023-11-19T09:43:53;12.00;99.90
57652;DHT22;43480;53.116;6.734;2023-11-19T09:46:19;12.00;99.90
57652;DHT22;43480;53.116;6.734;2023-11-19T09:48:45;12.10;99.90
57652;DHT22;43480;53.116;6.734;2023-11-19T09:51:11;12.10;99.90
57652;DHT22;43480;53.116;6.734;2023-11-19T09:53:37;12.10;99.90
57652;DHT22;43480;53.116;6.734;2023-11-19T09:56:04;12.10;99.90
57652;DHT22;43480;53.116;6.734;2023-11-19T09:58:31;12.00;99.90
57652;DHT22;43480;53.116;6.734;2023-11-19T10:00:58;12.00;99.90
57652;DHT22;43480;53.116;6.734;2023-11-19T10:03:32;12.00;99.90
57652;DHT22;43480;53.116;6.734;2023-11-19T10:05:58;12.00;99.90
57652;DHT22;43480;53.116;6.734;2023-11-19T10:08:24;12.10;99.90
57652;DHT22;43480;53.116;6.734;2023-11-19T10:10:50;12.10;99.90
57652;DHT22;43480;53.116;6.734;2023-11-19T10:13:17;12.10;99.90
57652;DHT22;43480;53.116;6.734;2023-11-19T10:15:44;12.10;99.90
57652;DHT22;43480;53.116;6.734;2023-11-19T10:18:09;12.20;99.90
57652;DHT22;43480;53.116;6.734;2023-11-19T10:20:41;12.10;99.90
57652;DHT22;43480;53.116;6.734;2023-11-19T10:23:07;12.10;99.90
57652;DHT22;43480;53.116;6.734;2023-11-19T10:25:33;12.10;99.90
57652;DHT22;43480;53.116;6.734;2023-11-19T10:27:59;12.10;99.90
57652;DHT22;43480;53.116;6.734;2023-11-19T10:30:29;12.10;99.90
57652;DHT22;43480;53.116;6.734;2023-11-19T10:33:09;12.10;99.90
57652;DHT22;43480;53.116;6.734;2023-11-19T10:35:56;12.00;99.90
57652;DHT22;43480;53.116;6.734;2023-11-19T10:38:26;11.90;99.90
57652;DHT22;43480;53.116;6.734;2023-11-19T10:40:52;11.90;99.90
57652;DHT22;43480;53.116;6.734;2023-11-19T10:43:21;11.90;99.90
57652;DHT22;43480;53.116;6.734;2023-11-19T10:45:51;11.90;99.90
57652;DHT22;43480;53.116;6.734;2023-11-19T10:48:18;11.80;99.90
57652;DHT22;43480;53.116;6.734;2023-11-19T10:50:45;11.80;99.90
57652;DHT22;43480;53.116;6.734;2023-11-19T10:53:12;11.80;99.90
57652;DHT22;43480;53.116;6.734;2023-11-19T10:55:41;11.80;99.90
57652;DHT22;43480;53.116;6.734;2023-11-19T10:58:10;11.90;99.90
57652;DHT22;43480;53.116;6.734;2023-11-19T11:00:47;11.80;99.90
57652;DHT22;43480;53.116;6.734;2023-11-19T11:03:20;11.80;99.90
57652;DHT22;43480;53.116;6.734;2023-11-19T11:05:49;11.80;99.90
57652;DHT22;43480;53.116;6.734;2023-11-19T11:08:15;11.80;99.90
57652;DHT22;43480;53.116;6.734;2023-11-19T11:10:57;11.80;99.90
57652;DHT22;43480;53.116;6.734;2023-11-19T11:13:24;11.80;99.90
57652;DHT22;43480;53.116;6.734;2023-11-19T11:15:50;11.70;99.90
57652;DHT22;43480;53.116;6.734;2023-11-19T11:18:17;11.80;99.90
57652;DHT22;43480;53.116;6.734;2023-11-19T11:20:46;11.80;99.90
57652;DHT22;43480;53.116;6.734;2023-11-19T11:28:59;12.20;99.90
57652;DHT22;43480;53.116;6.734;2023-11-19T11:31:34;12.20;99.90
57652;DHT22;43480;53.116;6.734;2023-11-19T11:39:36;12.30;99.90
57652;DHT22;43480;53.116;6.734;2023-11-19T11:45:08;12.30;99.90
57652;DHT22;43480;53.116;6.734;2023-11-19T11:50:15;12.30;99.90
57652;DHT22;43480;53.116;6.734;2023-11-19T11:55:28;12.30;99.90
57652;DHT22;43480;53.116;6.734;2023-11-19T11:57:57;12.20;99.90
57652;DHT22;43480;53.116;6.734;2023-11-19T12:00:27;12.10;99.90
57652;DHT22;43480;53.116;6.734;2023-11-19T12:02:55;12.00;99.90
57652;DHT22;43480;53.116;6.734;2023-11-19T12:05:21;12.00;99.90
57652;DHT22;43480;53.116;6.734;2023-11-19T12:07:57;12.10;99.90
57652;DHT22;43480;53.116;6.734;2023-11-19T12:10:25;12.00;99.90
57652;DHT22;43480;53.116;6.734;2023-11-19T12:12:58;12.10;99.90
57652;DHT22;43480;53.116;6.734;2023-11-19T12:15:24;12.00;99.90
57652;DHT22;43480;53.116;6.734;2023-11-19T12:17:52;12.00;99.90
57652;DHT22;43480;53.116;6.734;2023-11-19T12:20:19;12.10;99.90
57652;DHT22;43480;53.116;6.734;2023-11-19T12:22:46;12.10;99.90
57652;DHT22;43480;53.116;6.734;2023-11-19T12:25:15;12.10;99.90
57652;DHT22;43480;53.116;6.734;2023-11-19T12:27:53;12.10;99.90
57652;DHT22;43480;53.116;6.734;2023-11-19T12:30:23;12.10;99.90
57652;DHT22;43480;53.116;6.734;2023-11-19T12:32:50;12.10;99.90
57652;DHT22;43480;53.116;6.734;2023-11-19T12:35:16;12.00;99.90
57652;DHT22;43480;53.116;6.734;2023-11-19T12:37:46;12.00;99.90
57652;DHT22;43480;53.116;6.734;2023-11-19T12:40:20;12.00;99.90
57652;DHT22;43480;53.116;6.734;2023-11-19T12:42:49;12.00;99.90
57652;DHT22;43480;53.116;6.734;2023-11-19T12:45:15;12.10;99.90
57652;DHT22;43480;53.116;6.734;2023-11-19T12:47:43;12.10;99.90
57652;DHT22;43480;53.116;6.734;2023-11-19T12:50:09;12.10;99.90
57652;DHT22;43480;53.116;6.734;2023-11-19T12:52:38;12.20;99.90
57652;DHT22;43480;53.116;6.734;2023-11-19T12:55:05;12.20;99.90
57652;DHT22;43480;53.116;6.734;2023-11-19T12:57:41;12.30;99.90
57652;DHT22;43480;53.116;6.734;2023-11-19T13:00:17;12.30;99.90
57652;DHT22;43480;53.116;6.734;2023-11-19T13:02:56;12.30;99.90
57652;DHT22;43480;53.116;6.734;2023-11-19T13:08:01;12.40;99.90
57652;DHT22;43480;53.116;6.734;2023-11-19T13:10:28;12.40;99.90
57652;DHT22;43480;53.116;6.734;2023-11-19T13:13:01;12.40;99.90
57652;DHT22;43480;53.116;6.734;2023-11-19T13:15:27;12.50;99.90
57652;DHT22;43480;53.116;6.734;2023-11-19T13:17:54;12.50;99.90
57652;DHT22;43480;53.116;6.734;2023-11-19T13:20:19;12.60;99.90
57652;DHT22;43480;53.116;6.734;2023-11-19T13:23:01;12.70;99.90
57652;DHT22;43480;53.116;6.734;2023-11-19T13:25:27;12.60;99.90
57652;DHT22;43480;53.116;6.734;2023-11-19T13:27:54;12.60;99.90
57652;DHT22;43480;53.116;6.734;2023-11-19T13:30:20;12.60;99.90
57652;DHT22;43480;53.116;6.734;2023-11-19T13:32:48;12.60;99.90
57652;DHT22;43480;53.116;6.734;2023-11-19T13:35:13;12.60;99.90
57652;DHT22;43480;53.116;6.734;2023-11-19T13:37:39;12.50;99.90
57652;DHT22;43480;53.116;6.734;2023-11-19T13:40:07;12.50;99.90
57652;DHT22;43480;53.116;6.734;2023-11-19T13:42:32;12.50;99.90
57652;DHT22;43480;53.116;6.734;2023-11-19T13:44:58;12.50;99.90
57652;DHT22;43480;53.116;6.734;2023-11-19T13:47:24;12.40;99.90
57652;DHT22;43480;53.116;6.734;2023-11-19T13:49:50;12.40;99.90
57652;DHT22;43480;53.116;6.734;2023-11-19T13:52:15;12.40;99.90
57652;DHT22;43480;53.116;6.734;2023-11-19T13:54:41;12.40;99.90
57652;DHT22;43480;53.116;6.734;2023-11-19T13:57:07;12.40;99.90
57652;DHT22;43480;53.116;6.734;2023-11-19T13:59:32;12.40;99.90
57652;DHT22;43480;53.116;6.734;2023-11-19T14:01:58;12.40;99.90
57652;DHT22;43480;53.116;6.734;2023-11-19T14:04:24;12.40;99.90
57652;DHT22;43480;53.116;6.734;2023-11-19T14:06:50;12.30;99.90
57652;DHT22;43480;53.116;6.734;2023-11-19T14:09:16;12.30;99.90
57652;DHT22;43480;53.116;6.734;2023-11-19T14:11:43;12.30;99.90
57652;DHT22;43480;53.116;6.734;2023-11-19T14:14:08;12.30;99.90
57652;DHT22;43480;53.116;6.734;2023-11-19T14:16:34;12.30;99.90
57652;DHT22;43480;53.116;6.734;2023-11-19T14:19:00;12.30;99.90
57652;DHT22;43480;53.116;6.734;2023-11-19T14:21:26;12.20;99.90
57652;DHT22;43480;53.116;6.734;2023-11-19T14:23:52;12.20;99.90
57652;DHT22;43480;53.116;6.734;2023-11-19T14:26:18;12.20;99.90
57652;DHT22;43480;53.116;6.734;2023-11-19T14:28:44;12.20;99.90
57652;DHT22;43480;53.116;6.734;2023-11-19T14:31:09;12.10;99.90
57652;DHT22;43480;53.116;6.734;2023-11-19T14:33:35;12.20;99.90
57652;DHT22;43480;53.116;6.734;2023-11-19T14:36:02;12.10;99.90
57652;DHT22;43480;53.116;6.734;2023-11-19T14:38:28;12.00;99.90
57652;DHT22;43480;53.116;6.734;2023-11-19T14:40:53;12.10;99.90
57652;DHT22;43480;53.116;6.734;2023-11-19T14:43:20;12.10;99.90
57652;DHT22;43480;53.116;6.734;2023-11-19T14:45:45;12.10;99.90
57652;DHT22;43480;53.116;6.734;2023-11-19T14:48:11;12.00;99.90
57652;DHT22;43480;53.116;6.734;2023-11-19T14:50:37;12.00;99.90
57652;DHT22;43480;53.116;6.734;2023-11-19T14:53:02;12.00;99.90
57652;DHT22;43480;53.116;6.734;2023-11-19T14:55:28;12.00;99.90
57652;DHT22;43480;53.116;6.734;2023-11-19T14:57:54;12.00;99.90
57652;DHT22;43480;53.116;6.734;2023-11-19T15:00:21;11.90;99.90
57652;DHT22;43480;53.116;6.734;2023-11-19T15:02:47;11.90;99.90
57652;DHT22;43480;53.116;6.734;2023-11-19T15:05:12;11.90;99.90
57652;DHT22;43480;53.116;6.734;2023-11-19T15:07:39;11.90;99.90
57652;DHT22;43480;53.116;6.734;2023-11-19T15:10:06;11.80;99.90
57652;DHT22;43480;53.116;6.734;2023-11-19T15:12:36;11.80;99.90
57652;DHT22;43480;53.116;6.734;2023-11-19T15:15:06;11.80;99.90
57652;DHT22;43480;53.116;6.734;2023-11-19T15:17:32;11.80;99.90
57652;DHT22;43480;53.116;6.734;2023-11-19T15:19:57;11.80;99.90
57652;DHT22;43480;53.116;6.734;2023-11-19T15:22:23;11.80;99.90
57652;DHT22;43480;53.116;6.734;2023-11-19T15:24:48;11.80;99.90
57652;DHT22;43480;53.116;6.734;2023-11-19T15:27:14;11.80;99.90
57652;DHT22;43480;53.116;6.734;2023-11-19T15:29:40;11.80;99.90
57652;DHT22;43480;53.116;6.734;2023-11-19T15:32:06;11.80;99.90
57652;DHT22;43480;53.116;6.734;2023-11-19T15:34:33;11.80;99.90
57652;DHT22;43480;53.116;6.734;2023-11-19T15:36:59;11.80;99.90
57652;DHT22;43480;53.116;6.734;2023-11-19T15:39:26;11.80;99.90
57652;DHT22;43480;53.116;6.734;2023-11-19T15:41:53;11.80;99.90
57652;DHT22;43480;53.116;6.734;2023-11-19T15:44:18;11.80;99.90
57652;DHT22;43480;53.116;6.734;2023-11-19T15:46:44;11.80;99.90
57652;DHT22;43480;53.116;6.734;2023-11-19T15:49:09;11.70;99.90
57652;DHT22;43480;53.116;6.734;2023-11-19T15:51:35;11.70;99.90